Terminal Aerodrome Forecast
Issued by NWS Cleveland, OH

Home | Current Version | Previous Version | Graphics & Text | Print | Product List | Glossary Off
Versions: 1 2 3 4 5 6 7 8 9 10 11 12 13 14 15 16 17

526
FTUS41 KCLE 242015 AAB
TAFTOL
TAF AMD
KTOL 242015Z 2420/2518 08010KT 3SM -SHRA OVC007
      TEMPO 2420/2424 2SM -SHRA OVC005
     FM250300 05005KT P6SM OVC007
     FM250400 02004KT 3SM BR OVC003
     FM251500 35012KT P6SM BKN035=

USA.gov is the U.S. government's official web portal to all federal, state and local government web resources and services.